createdAt,value
2018-11-04T00:00:19.655Z,9.63
2018-11-04T00:02:48.576Z,5.97
2018-11-04T00:05:16.979Z,8.13
2018-11-04T00:07:45.846Z,7.97
2018-11-04T00:10:13.882Z,7.42
2018-11-04T00:12:42.085Z,9.25
2018-11-04T00:15:13.254Z,9.95
2018-11-04T00:17:44.689Z,9.10
2018-11-04T00:22:51.399Z,8.75
2018-11-04T00:25:19.883Z,10.18
2018-11-04T00:27:48.142Z,7.37
2018-11-04T00:30:16.458Z,12.45
2018-11-04T00:32:44.869Z,7.95
2018-11-04T00:35:12.993Z,8.00
2018-11-04T00:37:41.096Z,7.95
2018-11-04T00:40:09.255Z,9.85
2018-11-04T00:42:37.837Z,7.83
2018-11-04T00:45:07.553Z,13.08
2018-11-04T00:47:35.665Z,7.78
2018-11-04T00:50:03.801Z,7.20
2018-11-04T00:52:32.296Z,11.22
2018-11-04T00:55:00.367Z,8.45
2018-11-04T00:57:28.516Z,10.20
2018-11-04T00:59:56.576Z,10.48
2018-11-04T01:02:24.649Z,10.10
2018-11-04T01:04:52.710Z,9.20
2018-11-04T01:07:20.761Z,7.53
2018-11-04T01:09:48.815Z,6.78
2018-11-04T01:12:16.877Z,7.62
2018-11-04T01:14:44.949Z,7.67
2018-11-04T01:17:13.032Z,6.22
2018-11-04T01:19:41.135Z,6.37
2018-11-04T01:22:09.175Z,6.90
2018-11-04T01:24:37.365Z,5.03
2018-11-04T01:27:05.664Z,5.97
2018-11-04T01:29:33.712Z,5.35
2018-11-04T01:32:01.783Z,5.30
2018-11-04T01:34:29.852Z,8.35
2018-11-04T01:36:57.932Z,7.28
2018-11-04T01:39:26.004Z,6.37
2018-11-04T01:41:54.085Z,6.80
2018-11-04T01:44:22.148Z,5.60
2018-11-04T01:46:50.215Z,5.70
2018-11-04T01:49:18.285Z,7.35
2018-11-04T01:51:46.333Z,8.63
2018-11-04T01:54:14.409Z,7.55
2018-11-04T01:56:42.465Z,7.20
2018-11-04T01:59:10.541Z,5.00
2018-11-04T02:01:38.614Z,4.33
2018-11-04T02:04:06.855Z,6.33
2018-11-04T02:06:34.925Z,5.97
2018-11-04T02:09:03.017Z,6.70
2018-11-04T02:11:31.101Z,5.75
2018-11-04T02:13:59.184Z,7.53
2018-11-04T02:16:27.229Z,5.83
2018-11-04T02:18:55.295Z,6.97
2018-11-04T02:21:23.350Z,4.92
2018-11-04T02:23:51.412Z,7.35
2018-11-04T02:26:19.520Z,4.67
2018-11-04T02:28:47.601Z,6.30
2018-11-04T02:31:15.656Z,8.63
2018-11-04T02:33:43.855Z,4.10
2018-11-04T02:36:12.080Z,7.12
2018-11-04T02:38:40.177Z,3.87
2018-11-04T02:41:08.468Z,7.20
2018-11-04T02:43:36.584Z,6.53
2018-11-04T02:46:05.454Z,5.25
2018-11-04T02:48:33.582Z,3.80
2018-11-04T02:51:01.645Z,5.15
2018-11-04T02:53:29.712Z,6.75
2018-11-04T02:55:58.048Z,7.08
2018-11-04T02:58:26.146Z,5.00
2018-11-04T03:00:54.197Z,6.42
2018-11-04T03:03:22.265Z,6.92
2018-11-04T03:05:50.316Z,6.97
2018-11-04T03:08:18.380Z,5.58
2018-11-04T03:10:46.445Z,4.00
2018-11-04T03:13:14.516Z,7.80
2018-11-04T03:15:42.618Z,3.65
2018-11-04T03:18:10.641Z,4.20
2018-11-04T03:20:38.754Z,8.23
2018-11-04T03:23:07.195Z,4.50
2018-11-04T03:25:35.262Z,6.15
2018-11-04T03:28:03.435Z,4.60
2018-11-04T03:30:31.672Z,4.85
2018-11-04T03:32:59.741Z,4.65
2018-11-04T03:35:27.812Z,3.95
2018-11-04T03:37:55.908Z,4.78
2018-11-04T03:40:23.977Z,5.60
2018-11-04T03:42:52.059Z,4.75
2018-11-04T03:45:20.104Z,5.20
2018-11-04T03:47:48.218Z,6.37
2018-11-04T03:50:16.276Z,5.72
2018-11-04T03:52:44.343Z,5.00
2018-11-04T03:55:12.422Z,7.72
2018-11-04T03:57:40.749Z,3.60
2018-11-04T04:00:11.082Z,6.33
2018-11-04T04:02:39.410Z,5.28
2018-11-04T04:05:08.375Z,6.83
2018-11-04T04:07:36.443Z,4.60
2018-11-04T04:10:05.328Z,4.92
2018-11-04T04:12:33.382Z,5.33
2018-11-04T04:15:01.430Z,6.17
2018-11-04T04:17:29.480Z,5.75
2018-11-04T04:19:57.599Z,7.45
2018-11-04T04:22:25.677Z,4.58
2018-11-04T04:24:53.750Z,9.98
2018-11-04T04:27:21.844Z,5.50
2018-11-04T04:29:49.921Z,5.12
2018-11-04T04:32:17.977Z,5.35
2018-11-04T04:34:46.061Z,6.22
2018-11-04T04:37:14.120Z,5.08
2018-11-04T04:39:42.180Z,3.70
2018-11-04T04:42:10.258Z,4.42
2018-11-04T04:44:38.304Z,6.08
2018-11-04T04:47:06.384Z,4.80
2018-11-04T04:49:34.444Z,5.72
2018-11-04T04:52:02.631Z,7.20
2018-11-04T04:54:31.083Z,6.80
2018-11-04T04:56:59.460Z,4.90
2018-11-04T04:59:27.564Z,4.10
2018-11-04T05:01:55.775Z,6.85
2018-11-04T05:04:24.264Z,5.10
2018-11-04T05:06:52.353Z,4.40
2018-11-04T05:09:20.458Z,6.67
2018-11-04T05:11:48.544Z,5.67
2018-11-04T05:14:16.615Z,4.20
2018-11-04T05:16:44.717Z,4.67
2018-11-04T05:19:12.805Z,4.40
2018-11-04T05:21:40.876Z,4.97
2018-11-04T05:24:08.962Z,4.53
2018-11-04T05:26:37.020Z,5.67
2018-11-04T05:29:05.086Z,4.78
2018-11-04T05:31:33.164Z,5.67
2018-11-04T05:34:01.236Z,6.20
2018-11-04T05:36:29.308Z,4.83
2018-11-04T05:38:57.368Z,7.33
2018-11-04T05:41:25.449Z,4.85
2018-11-04T05:43:53.523Z,6.60
2018-11-04T05:46:21.594Z,7.10
2018-11-04T05:48:49.670Z,5.17
2018-11-04T05:51:17.740Z,6.83
2018-11-04T05:53:45.796Z,4.78
2018-11-04T05:56:13.860Z,6.72
2018-11-04T05:58:41.928Z,8.33
2018-11-04T06:01:10.041Z,9.10
2018-11-04T06:03:38.108Z,9.63
2018-11-04T06:06:06.184Z,9.65
2018-11-04T06:08:34.289Z,6.17
2018-11-04T06:11:02.376Z,5.83
2018-11-04T06:13:30.445Z,4.30
2018-11-04T06:15:58.532Z,5.55
2018-11-04T06:18:26.616Z,7.15
2018-11-04T06:20:54.697Z,4.78
2018-11-04T06:23:22.768Z,7.53
2018-11-04T06:25:50.808Z,5.28
2018-11-04T06:28:18.880Z,4.85
2018-11-04T06:30:46.949Z,7.25
2018-11-04T06:33:15.032Z,6.37
2018-11-04T06:35:43.118Z,6.80
2018-11-04T06:38:11.202Z,6.17
2018-11-04T06:40:39.272Z,7.08
2018-11-04T06:43:07.360Z,5.22
2018-11-04T06:45:35.448Z,6.40
2018-11-04T06:48:03.549Z,8.28
2018-11-04T06:50:31.613Z,7.47
2018-11-04T06:52:59.978Z,4.92
2018-11-04T06:55:28.056Z,5.92
2018-11-04T06:57:56.150Z,7.50
2018-11-04T07:00:24.272Z,4.37
2018-11-04T07:02:52.631Z,4.20
2018-11-04T07:05:20.725Z,6.97
2018-11-04T07:07:49.206Z,7.08
2018-11-04T07:10:17.311Z,7.25
2018-11-04T07:12:45.390Z,8.48
2018-11-04T07:15:13.472Z,7.67
2018-11-04T07:17:41.511Z,6.10
2018-11-04T07:20:09.833Z,5.40
2018-11-04T07:22:38.292Z,9.15
2018-11-04T07:25:06.640Z,6.97
2018-11-04T07:27:34.708Z,10.75
2018-11-04T07:30:02.771Z,7.20
2018-11-04T07:32:30.844Z,6.55
2018-11-04T07:34:58.912Z,13.03
2018-11-04T07:37:27.018Z,6.75
2018-11-04T07:39:55.092Z,9.73
2018-11-04T07:42:23.144Z,8.53
2018-11-04T07:44:51.208Z,10.95
2018-11-04T07:47:19.279Z,9.20
2018-11-04T07:49:47.332Z,8.80
2018-11-04T07:52:15.400Z,10.10
2018-11-04T07:54:43.542Z,13.05
2018-11-04T07:57:11.541Z,13.62
2018-11-04T07:59:39.621Z,13.43
2018-11-04T08:02:07.667Z,11.88
2018-11-04T08:04:35.752Z,13.03
2018-11-04T08:07:03.900Z,9.73
2018-11-04T08:09:31.990Z,8.40
2018-11-04T08:12:00.128Z,12.47
2018-11-04T08:14:28.200Z,9.70
2018-11-04T08:16:56.255Z,10.53
2018-11-04T08:19:24.312Z,10.30
2018-11-04T08:21:52.380Z,10.63
2018-11-04T08:24:20.455Z,13.20
2018-11-04T08:26:48.522Z,10.05
2018-11-04T08:29:16.576Z,9.55
2018-11-04T08:31:44.628Z,7.17
2018-11-04T08:34:12.696Z,13.32
2018-11-04T08:36:40.995Z,11.08
2018-11-04T08:39:09.689Z,12.75
2018-11-04T08:41:37.955Z,12.25
2018-11-04T08:44:06.024Z,13.88
2018-11-04T08:46:34.105Z,11.90
2018-11-04T08:49:02.229Z,15.85
2018-11-04T08:51:30.308Z,14.87
2018-11-04T08:53:58.376Z,17.92
2018-11-04T08:56:26.452Z,16.60
2018-11-04T08:58:54.577Z,12.63
2018-11-04T09:01:22.649Z,14.90
2018-11-04T09:03:50.716Z,19.05
2018-11-04T09:06:18.783Z,19.85
2018-11-04T09:08:46.872Z,19.87
2018-11-04T09:11:14.944Z,20.17
2018-11-04T09:13:43.020Z,24.65
2018-11-04T09:16:11.069Z,19.85
2018-11-04T09:18:39.116Z,13.22
2018-11-04T09:21:07.388Z,17.25
2018-11-04T09:23:35.525Z,17.85
2018-11-04T09:26:03.592Z,21.50
2018-11-04T09:28:31.703Z,19.10
2018-11-04T09:30:59.766Z,15.98
2018-11-04T09:33:27.892Z,28.87
2018-11-04T09:35:56.384Z,18.12
2018-11-04T09:38:24.181Z,24.18
2018-11-04T09:40:52.248Z,25.40
2018-11-04T09:43:20.320Z,24.95
2018-11-04T09:45:48.382Z,21.73
2018-11-04T09:48:16.488Z,13.18
2018-11-04T09:50:44.580Z,19.48
2018-11-04T09:53:12.652Z,24.67
2018-11-04T09:55:41.299Z,27.85
2018-11-04T09:58:09.428Z,25.27
2018-11-04T10:00:37.560Z,27.35
2018-11-04T10:03:05.636Z,23.77
2018-11-04T10:05:33.768Z,27.50
2018-11-04T10:08:01.884Z,21.75
2018-11-04T10:10:29.963Z,23.00
2018-11-04T10:12:58.053Z,23.42
2018-11-04T10:15:26.230Z,20.23
2018-11-04T10:17:54.322Z,27.60
2018-11-04T10:20:22.699Z,19.10
2018-11-04T10:22:50.537Z,23.85
2018-11-04T10:25:18.641Z,24.98
2018-11-04T10:27:46.754Z,18.77
2018-11-04T10:30:16.301Z,25.17
2018-11-04T10:32:44.356Z,20.50
2018-11-04T10:35:12.453Z,17.42
2018-11-04T10:37:41.341Z,22.73
2018-11-04T10:40:10.444Z,22.98
2018-11-04T10:42:38.529Z,17.95
2018-11-04T10:45:07.868Z,24.87
2018-11-04T10:47:35.935Z,25.12
2018-11-04T10:50:04.225Z,15.78
2018-11-04T10:52:32.197Z,23.38
2018-11-04T10:55:00.457Z,20.85
2018-11-04T10:57:29.021Z,16.52
2018-11-04T10:59:57.186Z,24.40
2018-11-04T11:02:25.254Z,25.57
2018-11-04T11:04:53.526Z,28.92
2018-11-04T11:07:22.165Z,26.35
2018-11-04T11:09:50.516Z,23.02
2018-11-04T11:12:18.924Z,23.55
2018-11-04T11:14:47.020Z,24.92
2018-11-04T11:17:15.112Z,26.95
2018-11-04T11:19:43.339Z,17.60
2018-11-04T11:22:11.420Z,19.12
2018-11-04T11:24:39.546Z,23.98
2018-11-04T11:27:07.952Z,25.08
2018-11-04T11:29:36.302Z,24.60
2018-11-04T11:32:06.394Z,20.30
2018-11-04T11:34:34.776Z,21.37
2018-11-04T11:37:02.861Z,17.52
2018-11-04T11:39:31.436Z,22.35
2018-11-04T11:41:59.914Z,27.20
2018-11-04T11:44:28.090Z,23.30
2018-11-04T11:46:56.293Z,25.88
2018-11-04T11:49:24.361Z,19.90
2018-11-04T11:51:52.453Z,24.77
2018-11-04T11:54:20.772Z,26.48
2018-11-04T11:56:48.863Z,28.07
2018-11-04T11:59:17.401Z,28.02
2018-11-04T12:01:46.908Z,25.55
2018-11-04T12:04:16.574Z,26.02
2018-11-04T12:06:46.162Z,20.02
2018-11-04T12:09:16.980Z,23.57
2018-11-04T12:11:46.769Z,19.62
2018-11-04T12:14:20.099Z,23.83
2018-11-04T12:16:49.925Z,26.73
2018-11-04T12:19:19.000Z,21.57
2018-11-04T12:21:49.622Z,18.65
2018-11-04T12:24:17.717Z,22.30
2018-11-04T12:26:50.681Z,25.05
2018-11-04T12:29:27.873Z,19.87
2018-11-04T12:31:56.024Z,22.25
2018-11-04T12:34:24.134Z,23.57
2018-11-04T12:36:52.230Z,26.35
2018-11-04T12:39:20.337Z,20.55
2018-11-04T12:41:48.400Z,20.52
2018-11-04T12:44:16.510Z,24.25
2018-11-04T12:46:44.661Z,24.67
2018-11-04T12:49:13.305Z,22.58
2018-11-04T12:51:41.484Z,20.70
2018-11-04T12:54:09.564Z,18.40
2018-11-04T12:56:37.652Z,25.88
2018-11-04T12:59:05.903Z,30.97
2018-11-04T13:01:34.102Z,17.80
2018-11-04T13:04:02.544Z,29.02
2018-11-04T13:06:30.629Z,23.27
2018-11-04T13:08:58.713Z,23.95
2018-11-04T13:11:26.964Z,23.75
2018-11-04T13:13:54.992Z,27.13
2018-11-04T13:16:23.099Z,20.68
2018-11-04T13:18:51.205Z,23.65
2018-11-04T13:21:19.404Z,22.27
2018-11-04T13:23:47.477Z,19.48
2018-11-04T13:26:15.580Z,24.00
2018-11-04T13:28:43.781Z,25.23
2018-11-04T13:31:11.849Z,17.77
2018-11-04T13:33:39.930Z,24.00
2018-11-04T13:36:08.349Z,18.40
2018-11-04T13:38:36.423Z,19.50
2018-11-04T13:41:04.588Z,19.23
2018-11-04T13:43:32.667Z,16.17
2018-11-04T13:46:00.724Z,18.75
2018-11-04T13:48:28.792Z,17.62
2018-11-04T13:50:56.920Z,23.80
2018-11-04T13:53:25.000Z,16.90
2018-11-04T13:55:53.063Z,20.72
2018-11-04T13:58:21.209Z,21.87
2018-11-04T14:00:49.272Z,23.87
2018-11-04T14:03:17.386Z,26.42
2018-11-04T14:05:45.432Z,24.95
2018-11-04T14:08:13.492Z,23.42
2018-11-04T14:10:41.620Z,27.98
2018-11-04T14:13:09.749Z,22.45
2018-11-04T14:15:37.864Z,25.82
2018-11-04T14:18:05.992Z,26.70
2018-11-04T14:20:34.105Z,20.92
2018-11-04T14:23:02.202Z,20.12
2018-11-04T14:25:30.293Z,26.70
2018-11-04T14:27:58.400Z,26.17
2018-11-04T14:30:26.468Z,21.35
2018-11-04T14:32:54.583Z,21.12
2018-11-04T14:35:22.695Z,27.65
2018-11-04T14:37:50.795Z,22.65
2018-11-04T14:40:18.897Z,22.15
2018-11-04T14:42:46.984Z,25.35
2018-11-04T14:45:15.090Z,21.87
2018-11-04T14:47:43.148Z,19.67
2018-11-04T14:50:13.736Z,25.12
2018-11-04T14:52:41.835Z,21.30
2018-11-04T14:55:09.916Z,21.80
2018-11-04T14:57:38.160Z,22.35
2018-11-04T15:00:08.784Z,28.52
2018-11-04T15:02:36.923Z,23.05
2018-11-04T15:05:05.842Z,24.77
2018-11-04T15:07:34.014Z,26.87
2018-11-04T15:10:02.000Z,18.70
2018-11-04T15:12:30.143Z,20.52
2018-11-04T15:14:58.224Z,25.05
2018-11-04T15:17:26.289Z,27.52
2018-11-04T15:19:54.599Z,21.87
2018-11-04T15:22:22.728Z,28.20
2018-11-04T15:24:50.886Z,26.23
2018-11-04T15:27:19.056Z,25.08
2018-11-04T15:29:47.169Z,18.10
2018-11-04T15:32:15.433Z,22.30
2018-11-04T15:34:43.822Z,24.87
2018-11-04T15:37:11.678Z,28.07
2018-11-04T15:39:39.788Z,26.10
2018-11-04T15:42:07.878Z,30.97
2018-11-04T15:44:36.017Z,28.32
2018-11-04T15:47:04.104Z,21.23
2018-11-04T15:49:32.208Z,20.25
2018-11-04T15:52:00.288Z,18.80
2018-11-04T15:54:28.377Z,24.63
2018-11-04T15:57:00.709Z,22.20
2018-11-04T15:59:28.782Z,23.75
2018-11-04T16:01:56.856Z,25.70
2018-11-04T16:04:24.985Z,24.45
2018-11-04T16:06:53.096Z,29.90
2018-11-04T16:09:21.294Z,30.08
2018-11-04T16:11:49.415Z,25.05
2018-11-04T16:14:17.516Z,22.05
2018-11-04T16:16:45.614Z,32.38
2018-11-04T16:19:13.753Z,26.70
2018-11-04T16:21:41.885Z,29.07
2018-11-04T16:24:09.961Z,22.48
2018-11-04T16:26:38.072Z,24.75
2018-11-04T16:29:06.184Z,26.80
2018-11-04T16:31:34.313Z,23.55
2018-11-04T16:34:02.438Z,22.58
2018-11-04T16:36:30.530Z,26.62
2018-11-04T16:38:58.634Z,29.57
2018-11-04T16:41:26.732Z,18.00
2018-11-04T16:43:54.950Z,28.70
2018-11-04T16:46:22.976Z,22.05
2018-11-04T16:48:51.100Z,28.45
2018-11-04T16:51:19.225Z,26.77
2018-11-04T16:53:47.356Z,26.45
2018-11-04T16:56:15.599Z,23.05
2018-11-04T16:58:43.576Z,29.02
2018-11-04T17:01:11.677Z,31.23
2018-11-04T17:03:39.772Z,27.17
2018-11-04T17:06:07.880Z,27.73
2018-11-04T17:08:35.960Z,25.92
2018-11-04T17:11:04.042Z,23.77
2018-11-04T17:13:32.145Z,26.40
2018-11-04T17:16:00.276Z,21.40
2018-11-04T17:18:28.445Z,22.95
2018-11-04T17:20:56.574Z,29.35
2018-11-04T17:23:24.671Z,27.22
2018-11-04T17:25:52.816Z,21.00
2018-11-04T17:28:20.985Z,26.50
2018-11-04T17:30:49.134Z,24.07
2018-11-04T17:33:17.296Z,22.77
2018-11-04T17:35:45.413Z,27.93
2018-11-04T17:38:13.435Z,19.75
2018-11-04T17:40:41.588Z,27.98
2018-11-04T17:43:09.665Z,27.40
2018-11-04T17:45:37.775Z,22.15
2018-11-04T17:48:05.846Z,23.10
2018-11-04T17:50:33.917Z,34.63
2018-11-04T17:53:01.975Z,25.37
2018-11-04T17:55:30.067Z,24.65
2018-11-04T17:57:58.134Z,29.80
2018-11-04T18:00:26.205Z,30.65
2018-11-04T18:02:54.267Z,30.15
2018-11-04T18:05:22.328Z,27.55
2018-11-04T18:07:50.428Z,41.13
2018-11-04T18:10:18.533Z,29.45
2018-11-04T18:12:46.600Z,29.98
2018-11-04T18:15:15.118Z,45.08
2018-11-04T18:17:43.184Z,43.33
2018-11-04T18:20:11.888Z,38.67
2018-11-04T18:22:39.968Z,23.73
2018-11-04T18:25:08.860Z,33.53
2018-11-04T18:27:36.974Z,26.10
2018-11-04T18:30:06.506Z,32.88
2018-11-04T18:32:34.593Z,29.25
2018-11-04T18:35:02.691Z,27.20
2018-11-04T18:37:30.756Z,28.42
2018-11-04T18:39:59.273Z,21.85
2018-11-04T18:42:27.392Z,19.07
2018-11-04T18:44:55.482Z,27.75
2018-11-04T18:47:23.536Z,26.90
2018-11-04T18:49:51.619Z,30.43
2018-11-04T18:52:19.774Z,23.02
2018-11-04T18:54:47.820Z,26.40
2018-11-04T18:57:15.901Z,27.85
2018-11-04T18:59:43.961Z,29.18
2018-11-04T19:02:12.050Z,27.90
2018-11-04T19:04:40.116Z,27.67
2018-11-04T19:07:08.489Z,23.80
2018-11-04T19:09:36.556Z,23.22
2018-11-04T19:12:04.945Z,32.83
2018-11-04T19:14:33.005Z,29.67
2018-11-04T19:17:01.109Z,33.00
2018-11-04T19:19:29.277Z,28.10
2018-11-04T19:21:57.345Z,28.12
2018-11-04T19:24:25.412Z,22.25
2018-11-04T19:26:53.494Z,26.42
2018-11-04T19:29:21.577Z,23.67
2018-11-04T19:31:50.077Z,27.27
2018-11-04T19:34:18.391Z,27.52
2018-11-04T19:36:46.488Z,26.60
2018-11-04T19:39:14.607Z,25.70
2018-11-04T19:41:43.076Z,33.67
2018-11-04T19:44:11.162Z,31.77
2018-11-04T19:46:39.340Z,24.10
2018-11-04T19:49:07.488Z,27.40
2018-11-04T19:51:35.621Z,29.10
2018-11-04T19:54:03.769Z,27.58
2018-11-04T19:56:31.926Z,30.23
2018-11-04T19:59:00.056Z,37.50
2018-11-04T20:01:28.080Z,28.42
2018-11-04T20:03:56.152Z,25.55
2018-11-04T20:06:24.268Z,26.30
2018-11-04T20:08:57.736Z,26.02
2018-11-04T20:11:26.143Z,28.20
2018-11-04T20:13:59.591Z,25.88
2018-11-04T20:16:28.041Z,25.95
2018-11-04T20:19:01.574Z,32.55
2018-11-04T20:21:29.656Z,29.05
2018-11-04T20:23:57.736Z,35.45
2018-11-04T20:26:25.851Z,29.40
2018-11-04T20:28:53.935Z,29.85
2018-11-04T20:31:27.524Z,19.60
2018-11-04T20:33:55.670Z,33.53
2018-11-04T20:36:23.665Z,31.35
2018-11-04T20:38:57.200Z,29.57
2018-11-04T20:41:29.213Z,35.58
2018-11-04T20:43:57.316Z,30.50
2018-11-04T20:46:25.396Z,32.55
2018-11-04T20:48:58.921Z,25.60
2018-11-04T20:51:27.061Z,29.42
2018-11-04T20:53:55.089Z,25.57
2018-11-04T20:56:28.733Z,33.48
2018-11-04T20:58:56.787Z,28.83
2018-11-04T21:01:24.960Z,25.50
2018-11-04T21:03:53.215Z,33.67
2018-11-04T21:06:21.207Z,21.12
2018-11-04T21:08:49.334Z,29.18
2018-11-04T21:11:17.443Z,32.25
2018-11-04T21:13:45.534Z,33.73
2018-11-04T21:16:13.800Z,25.37
2018-11-04T21:18:41.760Z,27.27
2018-11-04T21:21:09.908Z,34.78
2018-11-04T21:23:38.096Z,28.55
2018-11-04T21:26:06.271Z,28.52
2018-11-04T21:28:34.683Z,34.38
2018-11-04T21:31:02.659Z,30.37
2018-11-04T21:33:30.905Z,31.07
2018-11-04T21:35:59.125Z,22.60
2018-11-04T21:38:27.393Z,30.85
2018-11-04T21:40:55.610Z,29.82
2018-11-04T21:43:24.043Z,32.45
2018-11-04T21:45:52.033Z,28.35
2018-11-04T21:48:20.236Z,37.83
2018-11-04T21:50:48.767Z,32.42
2018-11-04T21:53:17.082Z,25.43
2018-11-04T21:55:45.370Z,32.15
2018-11-04T21:58:14.781Z,35.65
2018-11-04T22:00:42.960Z,26.50
2018-11-04T22:03:11.490Z,32.75
2018-11-04T22:05:39.367Z,28.05
2018-11-04T22:08:07.488Z,30.95
2018-11-04T22:10:35.664Z,37.93
2018-11-04T22:13:03.808Z,30.40
2018-11-04T22:15:32.088Z,25.72
2018-11-04T22:18:00.951Z,34.70
2018-11-04T22:20:29.040Z,31.40
2018-11-04T22:22:57.103Z,37.80
2018-11-04T22:25:25.177Z,27.98
2018-11-04T22:27:53.408Z,29.87
2018-11-04T22:30:21.562Z,28.35
2018-11-04T22:32:49.634Z,32.13
2018-11-04T22:35:17.851Z,26.85
2018-11-04T22:37:45.924Z,36.23
2018-11-04T22:40:14.408Z,34.00
2018-11-04T22:42:42.899Z,35.55
2018-11-04T22:45:12.038Z,35.00
2018-11-04T22:47:40.709Z,34.53
2018-11-04T22:50:10.714Z,36.55
2018-11-04T22:52:39.173Z,32.33
2018-11-04T22:55:07.301Z,38.20
2018-11-04T22:57:35.416Z,40.48
2018-11-04T23:00:03.620Z,28.90
2018-11-04T23:02:31.693Z,34.63
2018-11-04T23:05:05.106Z,33.70
2018-11-04T23:07:41.936Z,35.00
2018-11-04T23:10:10.008Z,38.38
2018-11-04T23:12:38.076Z,37.42
2018-11-04T23:15:06.404Z,36.38
2018-11-04T23:17:34.565Z,27.45
2018-11-04T23:20:02.806Z,36.17
2018-11-04T23:22:30.885Z,35.95
2018-11-04T23:24:58.944Z,32.63
2018-11-04T23:27:27.041Z,28.55
2018-11-04T23:29:55.120Z,34.75
2018-11-04T23:32:23.176Z,29.23
2018-11-04T23:34:51.248Z,29.20
2018-11-04T23:37:19.316Z,36.00
2018-11-04T23:39:47.388Z,28.80
2018-11-04T23:42:15.452Z,43.60
2018-11-04T23:44:43.569Z,38.10
2018-11-04T23:47:11.628Z,35.95
2018-11-04T23:49:39.785Z,43.50
2018-11-04T23:52:07.831Z,31.97
2018-11-04T23:54:35.904Z,35.68
2018-11-04T23:57:03.980Z,25.90
2018-11-04T23:59:32.048Z,29.12
